Asia, Texas
Current Conditions -  °F | °C
As of 8:53 PM on Friday 31 Oct 2014 (Local Time) from KLFK Reporting Station
Clear Clear  
Wind Chill: 60°   Ceiling: Unl
Heat Index: 60°   Visibility: 10mi
Dew Point: 44°   Wind: 5mph
Humidity: 55%   Direction: 340°NNW
Pressure: 30.27"   Gusts: NA
Location:  31.024°N, 94.7686°W
Report Text: KLFK 010153Z AUTO 34004KT 10SM CLR 16/07 A3027 RMK AO2 SLP248 T01560067
Loading
Personal Weather Stations






























Interactive Weather Map
Tropical Storm Tracking
New forecast layout! Learn more

10-Day Weather Forecast

Advertisements
Track Severe Weather on mobile